createdAt,value
2018-08-25T00:00:12.318Z,42.23
2018-08-25T00:02:41.542Z,41.64
2018-08-25T00:05:10.778Z,42.08
2018-08-25T00:07:40.042Z,41.90
2018-08-25T00:10:09.314Z,42.02
2018-08-25T00:12:38.522Z,42.36
2018-08-25T00:15:07.924Z,41.91
2018-08-25T00:17:37.278Z,41.69
2018-08-25T00:20:06.512Z,41.23
2018-08-25T00:22:35.819Z,41.45
2018-08-25T00:25:05.084Z,41.24
2018-08-25T00:27:34.314Z,41.20
2018-08-25T00:30:03.914Z,41.31
2018-08-25T00:32:33.130Z,41.47
2018-08-25T00:35:02.432Z,41.13
2018-08-25T00:37:31.715Z,41.85
2018-08-25T00:40:01.019Z,41.97
2018-08-25T00:42:30.250Z,41.59
2018-08-25T00:44:59.469Z,41.22
2018-08-25T00:47:28.719Z,41.43
2018-08-25T00:49:57.936Z,41.46
2018-08-25T00:52:27.201Z,41.94
2018-08-25T00:54:56.502Z,41.56
2018-08-25T00:57:25.782Z,41.92
2018-08-25T00:59:55.165Z,42.45
2018-08-25T01:02:24.905Z,42.44
2018-08-25T01:04:54.522Z,42.77
2018-08-25T01:07:23.851Z,42.96
2018-08-25T01:09:53.322Z,43.38
2018-08-25T01:12:22.577Z,42.83
2018-08-25T01:14:51.945Z,42.79
2018-08-25T01:17:21.252Z,43.12
2018-08-25T01:19:50.676Z,43.39
2018-08-25T01:22:19.908Z,43.18
2018-08-25T01:24:49.209Z,43.70
2018-08-25T01:27:18.423Z,43.09
2018-08-25T01:29:47.664Z,43.66
2018-08-25T01:32:16.927Z,43.42
2018-08-25T01:34:46.316Z,43.57
2018-08-25T01:37:15.554Z,43.65
2018-08-25T01:39:44.825Z,43.75
2018-08-25T01:42:14.003Z,43.91
2018-08-25T01:44:43.219Z,43.89
2018-08-25T01:47:12.470Z,44.14
2018-08-25T01:49:41.702Z,43.87
2018-08-25T01:52:10.951Z,44.01
2018-08-25T01:54:40.250Z,44.15
2018-08-25T01:57:09.507Z,44.38
2018-08-25T01:59:38.775Z,44.59
2018-08-25T02:02:08.052Z,44.58
2018-08-25T02:04:37.346Z,44.74
2018-08-25T02:07:06.647Z,44.40
2018-08-25T02:09:35.986Z,44.73
2018-08-25T02:12:05.374Z,44.30
2018-08-25T02:14:34.605Z,44.47
2018-08-25T02:17:04.063Z,44.10
2018-08-25T02:19:33.279Z,44.25
2018-08-25T02:22:02.504Z,43.62
2018-08-25T02:24:31.826Z,43.62
2018-08-25T02:27:01.679Z,44.00
2018-08-25T02:29:30.996Z,43.96
2018-08-25T02:32:00.282Z,44.03
2018-08-25T02:34:29.519Z,43.74
2018-08-25T02:36:58.831Z,43.56
2018-08-25T02:39:28.072Z,43.61
2018-08-25T02:41:57.295Z,43.41
2018-08-25T02:44:26.549Z,43.13
2018-08-25T02:46:55.875Z,43.31
2018-08-25T02:49:25.177Z,43.44
2018-08-25T02:51:54.502Z,43.11
2018-08-25T02:54:23.847Z,43.37
2018-08-25T02:56:53.070Z,43.12
2018-08-25T02:59:22.371Z,42.86
2018-08-25T03:01:52.174Z,42.85
2018-08-25T03:04:21.831Z,42.77
2018-08-25T03:06:51.099Z,42.72
2018-08-25T03:09:20.403Z,42.95
2018-08-25T03:11:49.611Z,42.79
2018-08-25T03:14:18.865Z,42.64
2018-08-25T03:16:48.171Z,42.75
2018-08-25T03:19:17.401Z,42.36
2018-08-25T03:21:46.602Z,42.74
2018-08-25T03:24:15.872Z,42.46
2018-08-25T03:26:45.242Z,42.32
2018-08-25T03:29:14.485Z,42.60
2018-08-25T03:31:43.695Z,42.42
2018-08-25T03:34:13.009Z,42.27
2018-08-25T03:36:42.228Z,42.24
2018-08-25T03:39:12.557Z,42.24
2018-08-25T03:41:41.873Z,41.82
2018-08-25T03:44:11.816Z,41.88
2018-08-25T03:46:41.117Z,42.63
2018-08-25T03:49:10.745Z,41.98
2018-08-25T03:51:39.971Z,41.95
2018-08-25T03:54:09.197Z,41.80
2018-08-25T03:56:38.509Z,42.19
2018-08-25T03:59:07.563Z,41.99
2018-08-25T04:01:36.707Z,41.99
2018-08-25T04:04:05.832Z,41.66
2018-08-25T04:06:34.950Z,42.12
2018-08-25T04:09:05.751Z,41.92
2018-08-25T04:11:35.103Z,42.06
2018-08-25T04:14:04.404Z,41.94
2018-08-25T04:16:33.544Z,41.98
2018-08-25T04:19:02.832Z,41.77
2018-08-25T04:21:31.931Z,41.80
2018-08-25T04:24:01.032Z,41.67
2018-08-25T04:26:30.084Z,42.06
2018-08-25T04:28:59.151Z,41.65
2018-08-25T04:31:28.291Z,41.90
2018-08-25T04:33:57.349Z,41.89
2018-08-25T04:36:26.615Z,42.05
2018-08-25T04:39:01.343Z,41.75
2018-08-25T04:41:35.753Z,41.61
2018-08-25T04:44:04.805Z,41.85
2018-08-25T04:46:33.852Z,41.95
2018-08-25T04:49:02.992Z,41.87
2018-08-25T04:51:32.240Z,41.82
2018-08-25T04:54:01.440Z,41.59
2018-08-25T04:56:30.506Z,41.73
2018-08-25T04:58:59.684Z,41.52
2018-08-25T05:01:29.031Z,42.00
2018-08-25T05:03:58.109Z,41.79
2018-08-25T05:06:27.199Z,41.71
2018-08-25T05:08:56.292Z,41.52
2018-08-25T05:11:25.403Z,41.47
2018-08-25T05:13:54.503Z,41.74
2018-08-25T05:16:23.675Z,41.48
2018-08-25T05:18:52.752Z,41.76
2018-08-25T05:21:21.816Z,41.22
2018-08-25T05:23:51.057Z,41.28
2018-08-25T05:26:20.285Z,41.66
2018-08-25T05:28:49.399Z,41.34
2018-08-25T05:31:18.531Z,41.48
2018-08-25T05:33:47.668Z,41.65
2018-08-25T05:36:16.775Z,41.56
2018-08-25T05:38:45.877Z,41.73
2018-08-25T05:41:14.936Z,41.51
2018-08-25T05:43:44.145Z,41.44
2018-08-25T05:46:13.451Z,41.56
2018-08-25T05:48:42.493Z,41.27
2018-08-25T05:51:11.636Z,41.40
2018-08-25T05:53:40.720Z,41.44
2018-08-25T05:56:09.800Z,41.38
2018-08-25T05:58:38.932Z,41.21
2018-08-25T06:01:08.747Z,41.22
2018-08-25T06:03:38.091Z,41.45
2018-08-25T06:06:07.161Z,41.21
2018-08-25T06:08:36.525Z,41.50
2018-08-25T06:11:05.892Z,41.04
2018-08-25T06:13:35.001Z,41.50
2018-08-25T06:16:04.340Z,41.19
2018-08-25T06:18:33.462Z,41.00
2018-08-25T06:21:02.564Z,41.07
2018-08-25T06:23:31.633Z,41.34
2018-08-25T06:26:01.104Z,41.08
2018-08-25T06:28:30.172Z,41.02
2018-08-25T06:30:59.333Z,41.19
2018-08-25T06:33:28.424Z,41.05
2018-08-25T06:35:57.487Z,41.04
2018-08-25T06:38:26.836Z,40.89
2018-08-25T06:40:56.237Z,41.30
2018-08-25T06:43:25.356Z,41.14
2018-08-25T06:46:00.003Z,41.05
2018-08-25T06:48:29.256Z,41.08
2018-08-25T06:50:58.354Z,41.14
2018-08-25T06:53:27.464Z,40.89
2018-08-25T06:55:56.662Z,41.33
2018-08-25T06:58:25.765Z,41.21
2018-08-25T07:00:54.839Z,40.92
2018-08-25T07:03:23.936Z,41.18
2018-08-25T07:05:53.334Z,40.83
2018-08-25T07:08:22.572Z,40.51
2018-08-25T07:10:51.662Z,41.03
2018-08-25T07:13:20.740Z,40.67
2018-08-25T07:15:49.892Z,40.41
2018-08-25T07:18:18.958Z,40.79
2018-08-25T07:20:48.038Z,40.43
2018-08-25T07:23:17.112Z,40.62
2018-08-25T07:25:46.385Z,40.52
2018-08-25T07:28:15.607Z,40.27
2018-08-25T07:30:44.800Z,40.26
2018-08-25T07:33:13.850Z,40.44
2018-08-25T07:35:43.103Z,40.26
2018-08-25T07:38:12.322Z,40.45
2018-08-25T07:40:41.564Z,40.37
2018-08-25T07:43:10.635Z,40.42
2018-08-25T07:45:39.770Z,40.42
2018-08-25T07:48:08.876Z,40.23
2018-08-25T07:50:37.960Z,40.01
2018-08-25T07:53:07.016Z,40.20
2018-08-25T07:55:36.134Z,40.47
2018-08-25T07:58:05.304Z,40.45
2018-08-25T08:00:34.464Z,40.48
2018-08-25T08:03:03.578Z,40.42
2018-08-25T08:05:32.791Z,40.53
2018-08-25T08:08:02.013Z,40.13
2018-08-25T08:10:31.172Z,40.28
2018-08-25T08:13:00.328Z,40.10
2018-08-25T08:15:29.533Z,40.02
2018-08-25T08:17:58.709Z,40.28
2018-08-25T08:20:27.828Z,39.86
2018-08-25T08:22:56.918Z,40.05
2018-08-25T08:25:25.995Z,39.60
2018-08-25T08:27:55.072Z,39.66
2018-08-25T08:30:24.226Z,39.70
2018-08-25T08:32:53.499Z,40.10
2018-08-25T08:35:22.734Z,40.34
2018-08-25T08:37:51.930Z,40.10
2018-08-25T08:40:20.996Z,40.02
2018-08-25T08:42:50.172Z,39.87
2018-08-25T08:45:19.359Z,40.03
2018-08-25T08:47:48.726Z,39.78
2018-08-25T08:50:17.864Z,39.46
2018-08-25T08:52:47.115Z,39.66
2018-08-25T08:55:16.191Z,39.48
2018-08-25T08:57:45.271Z,39.05
2018-08-25T09:00:14.334Z,39.07
2018-08-25T09:02:43.503Z,39.25
2018-08-25T09:05:12.714Z,39.66
2018-08-25T09:07:41.872Z,39.79
2018-08-25T09:10:10.912Z,39.23
2018-08-25T09:12:40.080Z,39.15
2018-08-25T09:15:09.135Z,39.23
2018-08-25T09:17:38.280Z,39.53
2018-08-25T09:20:07.358Z,39.36
2018-08-25T09:22:36.556Z,39.53
2018-08-25T09:25:05.878Z,39.13
2018-08-25T09:27:34.962Z,39.42
2018-08-25T09:30:04.153Z,39.30
2018-08-25T09:32:33.488Z,39.61
2018-08-25T09:35:02.544Z,39.30
2018-08-25T09:37:31.627Z,39.19
2018-08-25T09:40:00.796Z,39.33
2018-08-25T09:42:30.079Z,39.03
2018-08-25T09:44:59.139Z,39.21
2018-08-25T09:47:28.262Z,39.59
2018-08-25T09:49:57.323Z,39.09
2018-08-25T09:52:26.438Z,39.05
2018-08-25T09:54:55.726Z,39.10
2018-08-25T09:57:24.844Z,38.86
2018-08-25T09:59:54.195Z,38.72
2018-08-25T10:02:23.339Z,38.80
2018-08-25T10:04:58.051Z,38.61
2018-08-25T10:07:32.707Z,38.06
2018-08-25T10:10:01.805Z,37.20
2018-08-25T10:12:30.871Z,38.81
2018-08-25T10:14:59.993Z,39.75
2018-08-25T10:17:29.191Z,40.21
2018-08-25T10:19:58.347Z,39.64
2018-08-25T10:22:27.628Z,40.18
2018-08-25T10:24:56.979Z,39.65
2018-08-25T10:27:26.290Z,39.41
2018-08-25T10:29:55.487Z,39.27
2018-08-25T10:32:24.623Z,39.43
2018-08-25T10:34:53.731Z,39.46
2018-08-25T10:37:22.895Z,39.43
2018-08-25T10:39:52.096Z,39.77
2018-08-25T10:42:21.218Z,39.79
2018-08-25T10:44:50.359Z,39.71
2018-08-25T10:47:19.415Z,39.79
2018-08-25T10:49:48.504Z,39.64
2018-08-25T10:52:17.657Z,39.85
2018-08-25T10:54:46.782Z,39.65
2018-08-25T10:57:15.904Z,39.68
2018-08-25T10:59:45.023Z,38.96
2018-08-25T11:02:19.763Z,39.13
2018-08-25T11:04:48.900Z,39.38
2018-08-25T11:07:18.077Z,39.21
2018-08-25T11:09:47.252Z,38.55
2018-08-25T11:12:16.436Z,38.53
2018-08-25T11:14:45.882Z,38.36
2018-08-25T11:17:15.213Z,38.21
2018-08-25T11:19:44.350Z,38.55
2018-08-25T11:22:13.454Z,38.46
2018-08-25T11:24:42.638Z,38.75
2018-08-25T11:27:11.844Z,38.47
2018-08-25T11:29:40.944Z,38.62
2018-08-25T11:32:10.035Z,38.35
2018-08-25T11:34:39.208Z,38.31
2018-08-25T11:37:08.584Z,38.41
2018-08-25T11:39:37.804Z,38.17
2018-08-25T11:42:06.944Z,37.46
2018-08-25T11:44:36.157Z,38.98
2018-08-25T11:47:11.054Z,39.72
2018-08-25T11:49:40.188Z,40.08
2018-08-25T11:52:09.525Z,39.83
2018-08-25T11:54:38.820Z,39.31
2018-08-25T11:57:07.953Z,39.45
2018-08-25T11:59:36.992Z,39.27
2018-08-25T12:02:06.294Z,39.39
2018-08-25T12:04:35.653Z,39.05
2018-08-25T12:07:05.054Z,39.49
2018-08-25T12:09:34.222Z,39.37
2018-08-25T12:12:03.526Z,39.08
2018-08-25T12:14:32.674Z,38.99
2018-08-25T12:17:01.842Z,39.08
2018-08-25T12:19:31.034Z,38.97
2018-08-25T12:22:00.136Z,38.81
2018-08-25T12:24:29.332Z,38.17
2018-08-25T12:27:00.870Z,38.13
2018-08-25T12:29:30.244Z,37.98
2018-08-25T12:31:59.964Z,38.40
2018-08-25T12:34:29.295Z,38.31
2018-08-25T12:36:58.513Z,38.54
2018-08-25T12:39:27.726Z,38.10
2018-08-25T12:41:57.234Z,38.20
2018-08-25T12:44:26.623Z,38.08
2018-08-25T12:46:55.716Z,37.98
2018-08-25T12:49:24.771Z,38.24
2018-08-25T12:51:54.127Z,37.98
2018-08-25T12:54:23.209Z,38.38
2018-08-25T12:56:52.727Z,38.47
2018-08-25T12:59:22.454Z,38.44
2018-08-25T13:01:54.658Z,38.16
2018-08-25T13:04:24.150Z,38.03
2018-08-25T13:06:53.303Z,37.78
2018-08-25T13:09:22.833Z,38.39
2018-08-25T13:11:52.011Z,37.75
2018-08-25T13:14:21.860Z,37.25
2018-08-25T13:16:51.543Z,37.79
2018-08-25T13:19:21.035Z,37.92
2018-08-25T13:21:50.481Z,37.92
2018-08-25T13:24:20.194Z,37.52
2018-08-25T13:26:49.278Z,37.47
2018-08-25T13:29:18.763Z,37.36
2018-08-25T13:31:48.282Z,37.65
2018-08-25T13:34:17.359Z,37.85
2018-08-25T13:36:46.551Z,38.12
2018-08-25T13:39:15.733Z,38.17
2018-08-25T13:41:44.944Z,38.22
2018-08-25T13:44:14.295Z,38.02
2018-08-25T13:46:43.938Z,38.08
2018-08-25T13:49:13.881Z,38.04
2018-08-25T13:51:44.036Z,38.52
2018-08-25T13:54:13.164Z,38.16
2018-08-25T13:56:42.915Z,38.17
2018-08-25T13:59:12.377Z,38.57
2018-08-25T14:01:41.807Z,38.28
2018-08-25T14:04:10.988Z,38.72
2018-08-25T14:06:41.413Z,38.99
2018-08-25T14:09:10.515Z,39.29
2018-08-25T14:11:39.572Z,38.76
2018-08-25T14:14:08.631Z,38.97
2018-08-25T14:16:37.707Z,39.27
2018-08-25T14:19:06.811Z,38.88
2018-08-25T14:21:37.560Z,38.80
2018-08-25T14:24:07.509Z,38.77
2018-08-25T14:26:37.917Z,38.83
2018-08-25T14:29:06.999Z,38.68
2018-08-25T14:31:37.425Z,39.30
2018-08-25T14:34:07.280Z,38.75
2018-08-25T14:36:38.947Z,38.98
2018-08-25T14:39:09.265Z,39.12
2018-08-25T14:41:38.366Z,39.13
2018-08-25T14:44:08.140Z,39.25
2018-08-25T14:46:38.710Z,39.25
2018-08-25T14:49:09.539Z,39.20
2018-08-25T14:51:38.671Z,39.22
2018-08-25T14:54:08.251Z,39.63
2018-08-25T14:56:37.676Z,39.51
2018-08-25T14:59:06.796Z,39.21
2018-08-25T15:01:36.104Z,39.37
2018-08-25T15:04:06.444Z,39.34
2018-08-25T15:06:35.536Z,39.74
2018-08-25T15:09:08.364Z,39.93
2018-08-25T15:11:37.483Z,39.80
2018-08-25T15:14:07.935Z,39.98
2018-08-25T15:16:38.787Z,40.11
2018-08-25T15:19:07.870Z,39.81
2018-08-25T15:21:37.820Z,40.36
2018-08-25T15:24:06.900Z,40.13
2018-08-25T15:26:36.043Z,40.16
2018-08-25T15:29:05.141Z,40.50
2018-08-25T15:31:35.307Z,40.71
2018-08-25T15:34:04.810Z,40.35
2018-08-25T15:36:34.028Z,40.58
2018-08-25T15:39:05.336Z,41.02
2018-08-25T15:41:34.467Z,40.90
2018-08-25T15:44:03.593Z,41.14
2018-08-25T15:46:32.864Z,40.92
2018-08-25T15:49:03.404Z,40.84
2018-08-25T15:51:32.879Z,41.36
2018-08-25T15:54:02.426Z,40.95
2018-08-25T15:56:31.483Z,40.88
2018-08-25T15:59:00.611Z,40.60
2018-08-25T16:01:31.066Z,40.01
2018-08-25T16:04:00.631Z,40.17
2018-08-25T16:06:29.714Z,40.07
2018-08-25T16:08:58.819Z,39.71
2018-08-25T16:11:28.426Z,39.42
2018-08-25T16:13:57.639Z,39.59
2018-08-25T16:16:27.291Z,39.30
2018-08-25T16:18:57.295Z,39.39
2018-08-25T16:21:26.833Z,39.09
2018-08-25T16:23:56.391Z,38.77
2018-08-25T16:26:25.873Z,38.67
2018-08-25T16:28:55.883Z,38.43
2018-08-25T16:31:25.050Z,38.34
2018-08-25T16:33:55.427Z,38.24
2018-08-25T16:36:24.903Z,38.47
2018-08-25T16:38:53.988Z,38.67
2018-08-25T16:41:23.907Z,38.46
2018-08-25T16:43:54.404Z,38.67
2018-08-25T16:46:23.485Z,38.32
2018-08-25T16:48:53.003Z,38.63
2018-08-25T16:51:22.175Z,37.98
2018-08-25T16:53:51.228Z,38.35
2018-08-25T16:56:20.308Z,38.43
2018-08-25T16:58:49.789Z,37.79
2018-08-25T17:01:19.677Z,37.83
2018-08-25T17:03:49.361Z,37.40
2018-08-25T17:06:19.812Z,37.51
2018-08-25T17:08:49.288Z,37.38
2018-08-25T17:11:19.024Z,37.83
2018-08-25T17:13:48.499Z,37.40
2018-08-25T17:16:17.652Z,37.80
2018-08-25T17:18:46.858Z,37.83
2018-08-25T17:21:16.516Z,37.52
2018-08-25T17:23:46.199Z,37.63
2018-08-25T17:26:16.265Z,37.44
2018-08-25T17:28:46.772Z,37.91
2018-08-25T17:31:16.389Z,37.11
2018-08-25T17:33:45.938Z,37.60
2018-08-25T17:36:15.394Z,37.46
2018-08-25T17:38:45.270Z,36.81
2018-08-25T17:41:14.588Z,36.47
2018-08-25T17:43:43.744Z,36.65
2018-08-25T17:46:13.348Z,35.96
2018-08-25T17:48:43.229Z,36.38
2018-08-25T17:51:13.140Z,36.16
2018-08-25T17:53:42.464Z,36.42
2018-08-25T17:56:11.755Z,36.36
2018-08-25T17:58:40.911Z,36.13
2018-08-25T18:01:10.981Z,36.10
2018-08-25T18:03:40.143Z,36.02
2018-08-25T18:06:10.790Z,36.16
2018-08-25T18:08:40.311Z,36.12
2018-08-25T18:11:09.768Z,36.04
2018-08-25T18:13:39.492Z,36.52
2018-08-25T18:16:08.899Z,36.21
2018-08-25T18:18:38.103Z,36.71
2018-08-25T18:21:07.489Z,36.82
2018-08-25T18:23:37.200Z,37.24
2018-08-25T18:26:06.704Z,37.37
2018-08-25T18:28:35.858Z,37.44
2018-08-25T18:31:05.425Z,37.41
2018-08-25T18:33:34.724Z,37.40
2018-08-25T18:36:04.065Z,37.51
2018-08-25T18:38:33.513Z,37.52
2018-08-25T18:41:02.614Z,37.73
2018-08-25T18:43:32.356Z,37.35
2018-08-25T18:46:01.847Z,37.63
2018-08-25T18:48:31.562Z,37.79
2018-08-25T18:51:02.172Z,37.96
2018-08-25T18:53:31.660Z,38.27
2018-08-25T18:56:01.241Z,38.44
2018-08-25T18:58:31.615Z,38.52
2018-08-25T19:01:01.191Z,38.38
2018-08-25T19:03:31.501Z,38.64
2018-08-25T19:06:01.023Z,38.98
2018-08-25T19:08:31.163Z,39.10
2018-08-25T19:11:00.670Z,38.78
2018-08-25T19:13:35.174Z,39.18
2018-08-25T19:16:04.653Z,39.24
2018-08-25T19:18:34.376Z,39.59
2018-08-25T19:21:04.326Z,39.31
2018-08-25T19:23:34.239Z,39.53
2018-08-25T19:26:03.682Z,39.29
2018-08-25T19:28:33.426Z,39.36
2018-08-25T19:31:02.900Z,39.80
2018-08-25T19:33:32.971Z,39.67
2018-08-25T19:36:02.792Z,39.89
2018-08-25T19:38:32.295Z,39.84
2018-08-25T19:41:02.054Z,39.84
2018-08-25T19:43:31.714Z,39.95
2018-08-25T19:46:01.221Z,39.88
2018-08-25T19:48:30.930Z,40.08
2018-08-25T19:51:00.435Z,40.26
2018-08-25T19:53:29.895Z,40.49
2018-08-25T19:55:59.610Z,40.37
2018-08-25T19:58:30.856Z,40.37
2018-08-25T20:01:00.500Z,40.62
2018-08-25T20:03:30.478Z,40.26
2018-08-25T20:05:59.583Z,40.42
2018-08-25T20:08:29.240Z,40.67
2018-08-25T20:10:58.380Z,40.67
2018-08-25T20:13:27.890Z,40.40
2018-08-25T20:15:57.379Z,40.58
2018-08-25T20:18:26.718Z,40.45
2018-08-25T20:20:57.296Z,40.78
2018-08-25T20:23:27.489Z,40.87
2018-08-25T20:25:56.932Z,40.92
2018-08-25T20:28:26.172Z,40.86
2018-08-25T20:30:55.592Z,40.73
2018-08-25T20:33:25.364Z,40.92
2018-08-25T20:35:54.915Z,40.97
2018-08-25T20:38:24.785Z,41.02
2018-08-25T20:40:55.167Z,41.02
2018-08-25T20:43:24.658Z,41.07
2018-08-25T20:45:54.061Z,40.99
2018-08-25T20:48:23.431Z,40.84
2018-08-25T20:50:52.666Z,40.83
2018-08-25T20:53:22.002Z,40.91
2018-08-25T20:55:51.373Z,40.48
2018-08-25T20:58:20.552Z,40.29
2018-08-25T21:00:49.916Z,40.51
2018-08-25T21:03:19.243Z,40.26
2018-08-25T21:05:48.468Z,40.33
2018-08-25T21:08:17.607Z,40.69
2018-08-25T21:10:46.747Z,40.60
2018-08-25T21:13:15.942Z,40.67
2018-08-25T21:15:45.213Z,40.58
2018-08-25T21:18:14.446Z,40.36
2018-08-25T21:20:43.755Z,40.82
2018-08-25T21:23:12.893Z,40.83
2018-08-25T21:25:42.012Z,40.53
2018-08-25T21:28:11.136Z,40.54
2018-08-25T21:30:40.296Z,40.70
2018-08-25T21:33:09.376Z,40.52
2018-08-25T21:35:38.464Z,40.43
2018-08-25T21:38:07.599Z,40.38
2018-08-25T21:40:36.882Z,40.24
2018-08-25T21:43:06.124Z,40.61
2018-08-25T21:45:35.332Z,40.19
2018-08-25T21:48:04.398Z,40.38
2018-08-25T21:50:33.592Z,40.43
2018-08-25T21:53:02.815Z,40.54
2018-08-25T21:55:31.949Z,40.58
2018-08-25T21:58:01.063Z,40.31
2018-08-25T22:00:30.230Z,40.55
2018-08-25T22:03:04.787Z,40.24
2018-08-25T22:05:39.812Z,40.55
2018-08-25T22:08:08.957Z,40.78
2018-08-25T22:10:38.132Z,40.67
2018-08-25T22:13:07.225Z,40.66
2018-08-25T22:15:36.277Z,40.73
2018-08-25T22:18:05.367Z,40.83
2018-08-25T22:20:34.416Z,40.65
2018-08-25T22:23:03.511Z,40.68
2018-08-25T22:25:32.567Z,40.85
2018-08-25T22:28:01.668Z,40.42
2018-08-25T22:30:30.748Z,40.65
2018-08-25T22:33:00.065Z,40.72
2018-08-25T22:35:29.490Z,40.47
2018-08-25T22:37:58.575Z,40.54
2018-08-25T22:40:27.677Z,40.40
2018-08-25T22:42:56.791Z,40.49
2018-08-25T22:45:25.911Z,40.40
2018-08-25T22:47:55.004Z,40.33
2018-08-25T22:50:24.073Z,40.23
2018-08-25T22:52:53.416Z,40.66
2018-08-25T22:55:23.475Z,40.73
2018-08-25T22:57:52.547Z,40.28
2018-08-25T23:00:22.123Z,40.27
2018-08-25T23:02:51.211Z,40.27
2018-08-25T23:05:20.315Z,40.66
2018-08-25T23:07:49.411Z,40.25
2018-08-25T23:10:18.464Z,40.36
2018-08-25T23:12:47.606Z,40.49
2018-08-25T23:15:16.671Z,40.25
2018-08-25T23:17:45.736Z,40.52
2018-08-25T23:20:14.865Z,40.32
2018-08-25T23:22:43.997Z,40.45
2018-08-25T23:25:13.051Z,40.39
2018-08-25T23:27:42.167Z,40.34
2018-08-25T23:30:11.270Z,40.48
2018-08-25T23:32:40.570Z,40.53
2018-08-25T23:35:09.695Z,40.50
2018-08-25T23:37:38.805Z,40.57
2018-08-25T23:40:07.855Z,40.68
2018-08-25T23:42:36.943Z,40.85
2018-08-25T23:45:05.999Z,40.61
2018-08-25T23:47:35.153Z,40.40
2018-08-25T23:50:04.459Z,40.82
2018-08-25T23:52:34.816Z,40.85
2018-08-25T23:55:05.567Z,40.94
2018-08-25T23:57:34.730Z,40.72
